createdAt,value
2022-09-06T00:01:28.591Z,1.67
2022-09-06T00:03:55.334Z,1.95
2022-09-06T00:06:23.413Z,2.70
2022-09-06T00:08:50.170Z,1.90
2022-09-06T00:11:17.691Z,1.75
2022-09-06T00:13:45.112Z,2.15
2022-09-06T00:16:14.450Z,1.63
2022-09-06T00:18:41.851Z,2.53
2022-09-06T00:21:16.134Z,1.95
2022-09-06T00:23:44.239Z,4.03
2022-09-06T00:26:11.360Z,2.30
2022-09-06T00:28:38.339Z,2.95
2022-09-06T00:31:09.927Z,2.28
2022-09-06T00:33:36.917Z,2.33
2022-09-06T00:36:04.059Z,2.58
2022-09-06T00:38:31.050Z,2.38
2022-09-06T00:40:59.510Z,3.92
2022-09-06T00:43:26.324Z,2.85
2022-09-06T00:45:53.881Z,2.60
2022-09-06T00:48:21.371Z,4.40
2022-09-06T00:50:50.287Z,5.85
2022-09-06T00:53:17.246Z,4.57
2022-09-06T00:55:44.082Z,3.47
2022-09-06T00:58:12.485Z,3.75
2022-09-06T01:00:39.214Z,4.57
2022-09-06T01:03:06.891Z,3.17
2022-09-06T01:05:37.859Z,2.53
2022-09-06T01:08:10.444Z,3.03
2022-09-06T01:10:50.200Z,5.53
2022-09-06T01:13:26.319Z,4.63
2022-09-06T01:15:59.039Z,4.05
2022-09-06T01:18:35.418Z,5.53
2022-09-06T01:21:19.191Z,3.97
2022-09-06T01:24:08.722Z,4.68
2022-09-06T01:27:01.206Z,3.90
2022-09-06T01:29:34.108Z,5.45
2022-09-06T01:32:05.552Z,4.95
2022-09-06T01:34:42.184Z,4.60
2022-09-06T01:37:11.119Z,5.43
2022-09-06T01:39:39.456Z,4.90
2022-09-06T01:42:09.167Z,4.72
2022-09-06T01:44:38.196Z,4.85
2022-09-06T01:47:13.990Z,6.43
2022-09-06T01:49:48.901Z,5.95
2022-09-06T01:52:18.802Z,5.82
2022-09-06T01:54:55.934Z,4.97
2022-09-06T01:57:35.946Z,7.43
2022-09-06T02:00:09.098Z,5.78
2022-09-06T02:02:43.058Z,6.38
2022-09-06T02:05:13.886Z,5.35
2022-09-06T02:07:42.402Z,5.68
2022-09-06T02:10:14.449Z,6.90
2022-09-06T02:12:43.046Z,5.80
2022-09-06T02:15:13.816Z,8.07
2022-09-06T02:17:43.410Z,6.68
2022-09-06T02:20:13.321Z,7.20
2022-09-06T02:22:42.224Z,6.53
2022-09-06T02:25:10.976Z,8.00
2022-09-06T02:27:37.953Z,7.28
2022-09-06T02:30:06.004Z,8.10
2022-09-06T02:32:37.562Z,6.90
2022-09-06T02:35:08.713Z,6.20
2022-09-06T02:37:35.405Z,9.88
2022-09-06T02:40:02.501Z,9.75
2022-09-06T02:42:29.365Z,7.95
2022-09-06T02:44:56.059Z,7.57
2022-09-06T02:47:22.767Z,7.70
2022-09-06T02:49:50.799Z,6.88
2022-09-06T02:52:17.531Z,11.52
2022-09-06T02:54:45.012Z,8.38
2022-09-06T02:57:11.743Z,7.13
2022-09-06T02:59:38.483Z,9.52
2022-09-06T03:02:05.288Z,9.93
2022-09-06T03:04:32.899Z,9.50
2022-09-06T03:07:01.019Z,9.02
2022-09-06T03:09:28.466Z,8.13
2022-09-06T03:11:55.248Z,13.13
2022-09-06T03:14:22.033Z,8.10
2022-09-06T03:16:48.749Z,10.20
2022-09-06T03:19:15.532Z,9.13
2022-09-06T03:21:42.182Z,13.90
2022-09-06T03:24:10.253Z,9.98
2022-09-06T03:26:36.951Z,8.93
2022-09-06T03:29:03.665Z,8.65
2022-09-06T03:31:30.375Z,8.73
2022-09-06T03:33:57.078Z,10.48
2022-09-06T03:36:23.735Z,9.88
2022-09-06T03:38:51.256Z,9.48
2022-09-06T03:41:19.330Z,8.82
2022-09-06T03:43:46.033Z,10.27
2022-09-06T03:46:12.787Z,13.07
2022-09-06T03:48:39.612Z,12.27
2022-09-06T03:51:06.590Z,12.73
2022-09-06T03:53:33.254Z,11.00
2022-09-06T03:56:00.087Z,12.90
2022-09-06T03:58:31.585Z,10.00
2022-09-06T04:01:03.652Z,12.13
2022-09-06T04:03:30.502Z,11.93
2022-09-06T04:05:57.170Z,10.07
2022-09-06T04:08:24.011Z,10.73
2022-09-06T04:10:51.296Z,11.90
2022-09-06T04:13:18.152Z,11.73
2022-09-06T04:15:47.895Z,11.82
2022-09-06T04:18:14.897Z,8.65
2022-09-06T04:20:41.921Z,8.30
2022-09-06T04:23:08.958Z,11.27
2022-09-06T04:25:35.695Z,9.57
2022-09-06T04:28:02.911Z,11.13
2022-09-06T04:30:29.647Z,11.73
2022-09-06T04:32:57.716Z,11.35
2022-09-06T04:35:24.410Z,12.70
2022-09-06T04:37:51.128Z,10.98
2022-09-06T04:40:17.832Z,10.88
2022-09-06T04:42:44.568Z,12.57
2022-09-06T04:45:11.471Z,12.23
2022-09-06T04:47:38.156Z,14.65
2022-09-06T04:50:07.234Z,11.32
2022-09-06T04:52:33.942Z,12.05
2022-09-06T04:55:00.684Z,10.05
2022-09-06T04:57:27.436Z,12.38
2022-09-06T04:59:54.117Z,10.40
2022-09-06T05:02:20.887Z,9.00
2022-09-06T05:04:47.729Z,11.63
2022-09-06T05:07:15.823Z,12.13
2022-09-06T05:09:42.514Z,14.00
2022-09-06T05:12:09.268Z,14.23
2022-09-06T05:14:35.952Z,13.48
2022-09-06T05:17:02.752Z,14.88
2022-09-06T05:19:29.480Z,13.70
2022-09-06T05:21:56.260Z,13.32
2022-09-06T05:24:24.323Z,14.15
2022-09-06T05:26:51.041Z,13.55
2022-09-06T05:29:17.732Z,14.70
2022-09-06T05:31:44.480Z,12.68
2022-09-06T05:34:13.421Z,14.70
2022-09-06T05:36:41.675Z,17.48
2022-09-06T05:39:08.390Z,13.75
2022-09-06T05:41:36.544Z,16.35
2022-09-06T05:44:03.821Z,14.15
2022-09-06T05:46:30.602Z,14.23
2022-09-06T05:49:01.256Z,15.60
2022-09-06T05:51:28.131Z,12.57
2022-09-06T05:53:54.864Z,13.57
2022-09-06T05:56:22.572Z,15.38
2022-09-06T05:58:50.735Z,17.25
2022-09-06T06:01:19.651Z,15.77
2022-09-06T06:03:51.129Z,14.60
2022-09-06T06:06:17.935Z,14.98
2022-09-06T06:08:44.812Z,14.27
2022-09-06T06:11:12.207Z,14.18
2022-09-06T06:13:39.749Z,14.13
2022-09-06T06:16:09.351Z,16.45
2022-09-06T06:18:36.432Z,14.88
2022-09-06T06:21:10.736Z,14.55
2022-09-06T06:23:37.749Z,15.90
2022-09-06T06:26:05.125Z,17.33
2022-09-06T06:28:32.323Z,12.90
2022-09-06T06:30:59.052Z,14.77
2022-09-06T06:33:27.895Z,14.07
2022-09-06T06:35:59.106Z,14.57
2022-09-06T06:38:30.323Z,12.18
2022-09-06T06:41:01.037Z,12.85
2022-09-06T06:43:36.408Z,13.32
2022-09-06T06:46:03.293Z,14.23
2022-09-06T06:48:31.569Z,10.40
2022-09-06T06:50:58.355Z,11.23
2022-09-06T06:53:25.173Z,13.75
2022-09-06T06:55:52.074Z,11.63
2022-09-06T06:58:19.213Z,14.00
2022-09-06T07:00:46.484Z,13.93
2022-09-06T07:03:13.603Z,12.32
2022-09-06T07:08:34.262Z,13.70
2022-09-06T07:11:01.263Z,14.57
2022-09-06T07:13:28.234Z,15.27
2022-09-06T07:16:07.488Z,15.52
2022-09-06T07:18:34.441Z,16.27
2022-09-06T07:26:31.847Z,13.18
2022-09-06T07:29:00.302Z,14.32
2022-09-06T07:34:14.613Z,10.77
2022-09-06T07:36:42.711Z,12.90
2022-09-06T07:39:09.426Z,11.60
2022-09-06T07:41:36.174Z,10.88
2022-09-06T07:44:03.437Z,11.10
2022-09-06T07:46:30.140Z,11.90
2022-09-06T07:48:57.072Z,12.75
2022-09-06T07:51:23.827Z,10.10
2022-09-06T07:54:06.983Z,9.05
2022-09-06T07:56:39.816Z,10.35
2022-09-06T07:59:06.884Z,9.75
2022-09-06T08:01:34.592Z,12.93
2022-09-06T08:04:02.772Z,10.82
2022-09-06T08:06:31.566Z,12.63
2022-09-06T08:09:00.925Z,8.65
2022-09-06T08:11:29.541Z,9.38
2022-09-06T08:13:57.531Z,11.52
2022-09-06T08:16:26.264Z,8.77
2022-09-06T08:18:54.125Z,11.75
2022-09-06T08:21:23.611Z,9.82
2022-09-06T08:23:52.009Z,10.10
2022-09-06T08:26:21.519Z,10.27
2022-09-06T08:28:48.817Z,9.77
2022-09-06T08:31:17.421Z,9.77
2022-09-06T08:33:44.501Z,9.98
2022-09-06T08:36:11.854Z,8.60
2022-09-06T08:38:38.659Z,9.63
2022-09-06T08:41:10.246Z,8.50
2022-09-06T08:43:39.623Z,8.50
2022-09-06T08:46:08.048Z,9.82
2022-09-06T08:48:38.457Z,8.27
2022-09-06T08:51:32.494Z,10.05
2022-09-06T08:54:05.752Z,7.50
2022-09-06T08:56:35.201Z,7.90
2022-09-06T08:59:06.672Z,5.50
2022-09-06T09:01:39.336Z,8.10
2022-09-06T09:04:12.718Z,8.77
2022-09-06T09:06:40.668Z,8.63
2022-09-06T09:09:08.691Z,5.85
2022-09-06T09:11:36.325Z,6.13
2022-09-06T09:14:08.327Z,8.98
2022-09-06T09:16:35.177Z,5.38
2022-09-06T09:19:04.147Z,8.27
2022-09-06T09:21:33.288Z,6.18
2022-09-06T09:24:04.567Z,5.13
2022-09-06T09:26:36.886Z,6.10
2022-09-06T09:29:07.371Z,5.38
2022-09-06T09:31:36.969Z,6.80
2022-09-06T09:34:05.027Z,4.85
2022-09-06T09:36:32.329Z,4.18
2022-09-06T09:38:59.809Z,5.85
2022-09-06T09:41:30.074Z,5.32
2022-09-06T09:44:02.277Z,6.25
2022-09-06T09:46:33.562Z,6.45
2022-09-06T09:49:04.074Z,6.07
2022-09-06T09:51:32.009Z,6.53
2022-09-06T09:54:00.981Z,6.65
2022-09-06T09:56:32.737Z,6.35
2022-09-06T09:59:00.027Z,6.63
2022-09-06T10:01:28.963Z,8.05
2022-09-06T10:07:08.650Z,6.93
2022-09-06T10:09:37.487Z,6.03
2022-09-06T10:12:04.948Z,6.30
2022-09-06T10:14:33.867Z,5.45
2022-09-06T10:17:00.773Z,7.32
2022-09-06T10:19:47.349Z,9.68
2022-09-06T10:22:31.254Z,7.72
2022-09-06T10:25:35.848Z,7.88
2022-09-06T10:28:30.259Z,6.93
2022-09-06T10:31:29.931Z,7.50
2022-09-06T10:34:09.230Z,7.53
2022-09-06T10:36:38.727Z,6.07
2022-09-06T10:39:16.226Z,8.25
2022-09-06T10:41:58.737Z,6.90
2022-09-06T10:44:35.628Z,6.90
2022-09-06T10:47:09.144Z,8.20
2022-09-06T10:49:37.857Z,7.45
2022-09-06T10:52:08.077Z,5.40
2022-09-06T10:54:38.395Z,10.75
2022-09-06T10:57:09.346Z,7.45
2022-09-06T10:59:59.170Z,9.32
2022-09-06T11:02:34.837Z,6.03
2022-09-06T11:10:45.946Z,5.47
2022-09-06T11:13:17.165Z,5.28
2022-09-06T11:15:46.263Z,6.57
2022-09-06T11:18:16.408Z,4.18
2022-09-06T11:20:48.101Z,4.65
2022-09-06T11:23:28.419Z,3.20
2022-09-06T11:26:23.082Z,6.47
2022-09-06T11:28:53.763Z,3.92
2022-09-06T11:34:13.014Z,2.92
2022-09-06T11:36:45.824Z,5.53
2022-09-06T11:39:16.511Z,5.85
2022-09-06T11:41:43.396Z,5.68
2022-09-06T11:44:10.670Z,5.70
2022-09-06T11:46:59.765Z,4.45
2022-09-06T11:49:37.549Z,4.40
2022-09-06T11:52:37.356Z,4.30
2022-09-06T11:55:09.960Z,5.43
2022-09-06T11:57:36.889Z,5.68
2022-09-06T12:00:07.022Z,3.45
2022-09-06T12:02:38.187Z,4.03
2022-09-06T12:05:14.947Z,6.03
2022-09-06T12:08:13.486Z,5.90
2022-09-06T12:10:50.911Z,5.32
2022-09-06T12:13:50.273Z,3.90
2022-09-06T12:16:17.569Z,3.22
2022-09-06T12:19:01.310Z,2.20
2022-09-06T12:21:37.371Z,3.00
2022-09-06T12:24:04.886Z,3.78
2022-09-06T12:26:55.543Z,4.50
2022-09-06T12:29:24.721Z,3.08
2022-09-06T12:31:52.814Z,5.15
2022-09-06T12:34:22.701Z,4.10
2022-09-06T12:36:53.717Z,3.17
2022-09-06T12:39:23.358Z,3.90
2022-09-06T12:41:55.085Z,4.18
2022-09-06T12:44:31.444Z,2.08
2022-09-06T12:47:03.906Z,4.20
2022-09-06T12:49:30.617Z,4.72
2022-09-06T12:52:06.748Z,8.60
2022-09-06T12:54:33.491Z,8.80
2022-09-06T12:57:14.506Z,6.53
2022-09-06T12:59:47.955Z,2.72
2022-09-06T13:02:17.423Z,3.28
2022-09-06T13:04:47.210Z,4.53
2022-09-06T13:07:16.941Z,4.15
2022-09-06T13:09:46.595Z,4.30
2022-09-06T13:12:20.944Z,7.90
2022-09-06T13:14:52.526Z,12.18
2022-09-06T13:17:24.423Z,5.95
2022-09-06T13:19:51.241Z,7.57
2022-09-06T13:22:40.069Z,5.38
2022-09-06T13:25:16.674Z,7.28
2022-09-06T13:27:50.897Z,8.50
2022-09-06T13:30:35.449Z,5.05
2022-09-06T13:33:02.825Z,6.32
2022-09-06T13:35:31.335Z,6.75
2022-09-06T13:38:23.047Z,6.45
2022-09-06T13:41:11.496Z,6.82
2022-09-06T13:43:45.141Z,8.13
2022-09-06T13:46:12.247Z,8.88
2022-09-06T13:48:44.711Z,8.55
2022-09-06T13:51:12.083Z,6.82
2022-09-06T13:53:38.899Z,8.77
2022-09-06T13:56:08.589Z,8.05
2022-09-06T13:58:35.944Z,7.30
2022-09-06T14:01:05.093Z,7.80
2022-09-06T14:03:32.884Z,6.45
2022-09-06T14:06:00.347Z,7.88
2022-09-06T14:08:43.420Z,9.70
2022-09-06T14:11:14.341Z,9.85
2022-09-06T14:13:41.058Z,6.72
2022-09-06T14:16:09.217Z,7.35
2022-09-06T14:18:36.289Z,6.43
2022-09-06T14:21:03.150Z,7.78
2022-09-06T14:23:29.883Z,5.80
2022-09-06T14:25:57.090Z,8.48
2022-09-06T14:28:24.053Z,8.88
2022-09-06T14:30:50.924Z,7.93
2022-09-06T14:33:19.368Z,5.50
2022-09-06T14:35:46.055Z,5.93
2022-09-06T14:38:12.844Z,6.75
2022-09-06T14:40:40.754Z,5.55
2022-09-06T14:43:07.489Z,7.30
2022-09-06T14:45:34.618Z,6.25
2022-09-06T14:48:01.931Z,7.88
2022-09-06T14:50:31.314Z,4.38
2022-09-06T14:52:58.167Z,11.00
2022-09-06T14:55:24.966Z,7.32
2022-09-06T14:57:52.054Z,5.70
2022-09-06T15:00:18.987Z,5.20
2022-09-06T15:02:45.718Z,4.78
2022-09-06T15:05:12.627Z,7.25
2022-09-06T15:07:40.727Z,5.75
2022-09-06T15:10:07.960Z,5.43
2022-09-06T15:12:35.193Z,5.03
2022-09-06T15:15:02.835Z,5.63
2022-09-06T15:17:30.287Z,5.47
2022-09-06T15:19:57.095Z,4.45
2022-09-06T15:22:23.931Z,5.03
2022-09-06T15:24:52.067Z,4.20
2022-09-06T15:27:18.998Z,5.30
2022-09-06T15:29:45.896Z,6.13
2022-09-06T15:32:12.654Z,5.28
2022-09-06T15:34:39.497Z,3.50
2022-09-06T15:37:06.350Z,4.57
2022-09-06T15:39:33.091Z,2.88
2022-09-06T15:42:01.224Z,3.35
2022-09-06T15:44:28.000Z,5.93
2022-09-06T15:46:57.609Z,2.67
2022-09-06T15:49:28.348Z,3.72
2022-09-06T15:51:56.225Z,3.08
2022-09-06T15:54:41.294Z,5.75
2022-09-06T15:57:09.754Z,3.58
2022-09-06T15:59:36.545Z,5.55
2022-09-06T16:02:03.579Z,4.90
2022-09-06T16:04:30.383Z,7.13
2022-09-06T16:06:57.142Z,2.15
2022-09-06T16:09:23.955Z,4.28
2022-09-06T16:11:50.725Z,3.92
2022-09-06T16:14:19.502Z,3.97
2022-09-06T16:16:46.347Z,4.60
2022-09-06T16:19:13.618Z,2.78
2022-09-06T16:21:42.147Z,5.78
2022-09-06T16:24:10.706Z,4.32
2022-09-06T16:26:38.876Z,4.82
2022-09-06T16:29:09.400Z,3.53
2022-09-06T16:31:40.279Z,6.28
2022-09-06T16:34:08.038Z,7.22
2022-09-06T16:36:34.977Z,5.32
2022-09-06T16:39:01.806Z,2.60
2022-09-06T16:41:31.673Z,4.88
2022-09-06T16:43:58.977Z,5.05
2022-09-06T16:46:28.788Z,3.08
2022-09-06T16:49:00.959Z,4.15
2022-09-06T16:51:28.343Z,3.95
2022-09-06T16:53:55.652Z,4.10
2022-09-06T16:56:23.969Z,3.67
2022-09-06T16:58:51.772Z,2.03
2022-09-06T17:01:18.993Z,5.28
2022-09-06T17:03:47.187Z,3.95
2022-09-06T17:06:15.502Z,3.20
2022-09-06T17:08:42.421Z,3.33
2022-09-06T17:11:10.645Z,3.65
2022-09-06T17:13:37.886Z,4.45
2022-09-06T17:16:23.963Z,5.00
2022-09-06T17:18:52.939Z,4.75
2022-09-06T17:21:21.428Z,3.63
2022-09-06T17:23:49.122Z,5.25
2022-09-06T17:26:15.867Z,2.67
2022-09-06T17:28:42.663Z,3.97
2022-09-06T17:31:09.677Z,4.03
2022-09-06T17:33:36.633Z,4.38
2022-09-06T17:36:07.884Z,2.92
2022-09-06T17:38:36.022Z,5.07
2022-09-06T17:41:02.828Z,3.55
2022-09-06T17:43:29.734Z,6.35
2022-09-06T17:45:56.537Z,3.38
2022-09-06T17:48:27.903Z,5.07
2022-09-06T17:50:55.753Z,4.10
2022-09-06T17:53:23.146Z,4.68
2022-09-06T17:55:52.305Z,4.47
2022-09-06T17:58:19.630Z,5.30
2022-09-06T18:00:46.400Z,3.97
2022-09-06T18:03:13.110Z,3.67
2022-09-06T18:05:40.331Z,4.13
2022-09-06T18:08:07.838Z,10.85
2022-09-06T18:10:36.434Z,4.07
2022-09-06T18:13:05.244Z,2.72
2022-09-06T18:15:32.435Z,4.53
2022-09-06T18:17:59.332Z,3.88
2022-09-06T18:20:26.594Z,5.30
2022-09-06T18:22:53.441Z,4.60
2022-09-06T18:25:20.223Z,5.35
2022-09-06T18:27:48.847Z,7.15
2022-09-06T18:30:17.010Z,4.82
2022-09-06T18:32:44.770Z,3.28
2022-09-06T18:35:11.725Z,4.80
2022-09-06T18:37:38.775Z,5.60
2022-09-06T18:40:06.723Z,4.22
2022-09-06T18:42:33.853Z,4.60
2022-09-06T18:45:00.563Z,3.13
2022-09-06T18:47:28.673Z,2.97
2022-09-06T18:49:55.398Z,2.08
2022-09-06T18:52:22.099Z,3.20
2022-09-06T18:54:49.424Z,3.25
2022-09-06T18:57:17.244Z,1.42
2022-09-06T18:59:44.692Z,3.33
2022-09-06T19:02:11.621Z,1.95
2022-09-06T19:04:39.802Z,4.45
2022-09-06T19:07:06.639Z,6.78
2022-09-06T19:09:33.495Z,3.72
2022-09-06T19:12:00.302Z,3.72
2022-09-06T19:14:27.206Z,2.38
2022-09-06T19:16:54.203Z,6.05
2022-09-06T19:19:21.865Z,2.80
2022-09-06T19:21:50.003Z,3.33
2022-09-06T19:24:16.777Z,2.35
2022-09-06T19:26:44.378Z,1.55
2022-09-06T19:29:13.983Z,4.38
2022-09-06T19:31:41.238Z,3.70
2022-09-06T19:34:07.998Z,3.88
2022-09-06T19:39:17.634Z,2.95
2022-09-06T19:41:47.526Z,3.88
2022-09-06T19:44:15.368Z,6.65
2022-09-06T19:46:45.719Z,3.17
2022-09-06T19:49:13.750Z,5.72
2022-09-06T19:51:40.920Z,3.90
2022-09-06T19:54:07.852Z,5.32
2022-09-06T19:56:36.450Z,4.60
2022-09-06T19:59:04.674Z,5.35
2022-09-06T20:01:32.871Z,5.22
2022-09-06T20:04:00.704Z,2.70
2022-09-06T20:06:27.542Z,3.88
2022-09-06T20:08:56.085Z,3.38
2022-09-06T20:11:24.847Z,4.10
2022-09-06T20:13:52.911Z,4.38
2022-09-06T20:16:20.917Z,5.13
2022-09-06T20:18:48.363Z,5.97
2022-09-06T20:21:15.441Z,4.15
2022-09-06T20:23:42.280Z,4.22
2022-09-06T20:26:10.860Z,5.63
2022-09-06T20:28:37.938Z,5.35
2022-09-06T20:31:07.975Z,4.68
2022-09-06T20:33:35.112Z,6.43
2022-09-06T20:36:06.367Z,5.43
2022-09-06T20:38:34.674Z,5.03
2022-09-06T20:41:04.232Z,4.85
2022-09-06T20:43:33.741Z,5.57
2022-09-06T20:46:00.870Z,8.52
2022-09-06T20:48:30.803Z,5.38
2022-09-06T20:50:58.807Z,7.53
2022-09-06T20:53:25.919Z,8.85
2022-09-06T20:55:57.742Z,8.90
2022-09-06T20:58:24.934Z,7.10
2022-09-06T21:00:52.228Z,7.13
2022-09-06T21:03:19.521Z,10.38
2022-09-06T21:05:47.626Z,8.18
2022-09-06T21:08:14.766Z,7.25
2022-09-06T21:10:41.652Z,7.00
2022-09-06T21:13:08.767Z,7.78
2022-09-06T21:15:36.150Z,9.77
2022-09-06T21:18:02.995Z,11.07
2022-09-06T21:20:29.989Z,10.45
2022-09-06T21:22:58.101Z,10.75
2022-09-06T21:25:24.842Z,7.05
2022-09-06T21:27:55.559Z,7.32
2022-09-06T21:30:22.542Z,7.97
2022-09-06T21:32:49.467Z,9.32
2022-09-06T21:35:16.326Z,3.80
2022-09-06T21:37:43.318Z,5.57
2022-09-06T21:40:11.663Z,7.75
2022-09-06T21:42:38.550Z,5.13
2022-09-06T21:45:06.194Z,4.65
2022-09-06T21:47:32.979Z,5.65
2022-09-06T21:49:59.672Z,5.38
2022-09-06T21:52:26.701Z,3.50
2022-09-06T21:54:53.400Z,5.47
2022-09-06T21:57:21.522Z,4.32
2022-09-06T21:59:48.451Z,4.72
2022-09-06T22:02:15.473Z,7.40
2022-09-06T22:04:43.017Z,15.65
2022-09-06T22:07:09.783Z,17.75
2022-09-06T22:09:36.502Z,21.40
2022-09-06T22:12:03.476Z,30.33
2022-09-06T22:14:31.574Z,26.13
2022-09-06T22:16:58.561Z,25.67
2022-09-06T22:19:25.512Z,23.98
2022-09-06T22:21:53.320Z,24.88
2022-09-06T22:24:20.214Z,18.60
2022-09-06T22:26:47.086Z,17.92
2022-09-06T22:29:15.243Z,13.88
2022-09-06T22:31:43.701Z,16.25
2022-09-06T22:34:10.972Z,15.60
2022-09-06T22:36:37.722Z,17.30
2022-09-06T22:39:04.542Z,17.30
2022-09-06T22:41:33.099Z,18.17
2022-09-06T22:44:00.377Z,15.25
2022-09-06T22:46:27.233Z,13.85
2022-09-06T22:48:56.993Z,13.20
2022-09-06T22:51:23.716Z,15.65
2022-09-06T22:53:50.789Z,12.20
2022-09-06T22:56:17.689Z,14.27
2022-09-06T22:58:44.498Z,10.70
2022-09-06T23:01:13.285Z,9.20
2022-09-06T23:03:41.830Z,7.30
2022-09-06T23:06:10.379Z,4.15
2022-09-06T23:08:38.892Z,4.55
2022-09-06T23:11:07.651Z,5.93
2022-09-06T23:13:34.451Z,5.68
2022-09-06T23:16:05.250Z,7.63
2022-09-06T23:18:32.193Z,4.35
2022-09-06T23:21:04.221Z,6.32
2022-09-06T23:23:32.349Z,2.80
2022-09-06T23:26:04.288Z,4.65
2022-09-06T23:28:31.325Z,3.55
2022-09-06T23:31:01.673Z,3.03
2022-09-06T23:33:29.154Z,6.82
2022-09-06T23:35:56.015Z,5.85
2022-09-06T23:38:22.812Z,5.55
2022-09-06T23:40:51.214Z,4.28
2022-09-06T23:43:17.936Z,5.25
2022-09-06T23:45:44.711Z,3.78
2022-09-06T23:48:11.491Z,5.85
2022-09-06T23:50:38.219Z,2.80
2022-09-06T23:53:04.958Z,3.25
2022-09-06T23:55:31.795Z,2.50
2022-09-06T23:58:00.292Z,5.00
